createdAt,value
2018-07-07T00:00:36.079Z,13.67
2018-07-07T00:01:35.666Z,13.62
2018-07-07T00:02:35.362Z,13.62
2018-07-07T00:03:57.177Z,13.70
2018-07-07T00:05:18.945Z,13.62
2018-07-07T00:06:19.612Z,13.62
2018-07-07T00:07:19.024Z,13.57
2018-07-07T00:08:31.593Z,13.52
2018-07-07T00:09:40.923Z,13.47
2018-07-07T00:10:40.626Z,13.49
2018-07-07T00:11:41.257Z,13.50
2018-07-07T00:12:40.934Z,13.52
2018-07-07T00:13:40.769Z,13.50
2018-07-07T00:14:41.448Z,13.50
2018-07-07T00:15:42.386Z,13.50
2018-07-07T00:16:41.161Z,13.49
2018-07-07T00:18:01.784Z,13.46
2018-07-07T00:19:02.332Z,13.49
2018-07-07T00:20:02.649Z,13.49
2018-07-07T00:21:02.181Z,13.52
2018-07-07T00:22:02.775Z,13.53
2018-07-07T00:23:02.510Z,13.52
2018-07-07T00:24:23.586Z,13.53
2018-07-07T00:25:24.330Z,13.52
2018-07-07T00:26:45.303Z,13.56
2018-07-07T00:27:46.184Z,13.53
2018-07-07T00:29:07.179Z,13.52
2018-07-07T00:30:07.908Z,13.46
2018-07-07T00:31:07.623Z,13.42
2018-07-07T00:32:07.111Z,13.46
2018-07-07T00:33:07.746Z,13.42
2018-07-07T00:34:07.428Z,13.41
2018-07-07T00:35:07.837Z,13.35
2018-07-07T00:36:07.509Z,13.35
2018-07-07T00:37:07.215Z,13.33
2018-07-07T00:38:08.064Z,13.28
2018-07-07T00:39:07.524Z,13.22
2018-07-07T00:40:07.873Z,13.25
2018-07-07T00:41:07.379Z,13.27
2018-07-07T00:42:08.197Z,13.23
2018-07-07T00:43:07.556Z,13.19
2018-07-07T00:44:07.358Z,13.16
2018-07-07T00:45:08.185Z,13.15
2018-07-07T00:46:07.619Z,13.13
2018-07-07T00:47:07.011Z,13.11
2018-07-07T00:48:07.306Z,13.11
2018-07-07T00:49:08.011Z,13.11
2018-07-07T00:50:07.513Z,13.08
2018-07-07T00:51:07.014Z,13.08
2018-07-07T00:52:07.393Z,13.05
2018-07-07T00:53:06.901Z,13.03
2018-07-07T00:54:49.868Z,13.01
2018-07-07T00:55:50.279Z,13.01
2018-07-07T00:56:49.771Z,13.00
2018-07-07T00:57:50.524Z,13.03
2018-07-07T00:58:50.191Z,13.03
2018-07-07T00:59:50.743Z,12.98
2018-07-07T01:00:50.277Z,12.98
2018-07-07T01:01:49.730Z,12.95
2018-07-07T01:02:50.421Z,12.95
2018-07-07T01:03:49.863Z,12.90
2018-07-07T01:04:50.464Z,12.87
2018-07-07T01:05:49.906Z,12.83
2018-07-07T01:06:50.287Z,12.79
2018-07-07T01:08:11.095Z,12.80
2018-07-07T01:09:11.617Z,12.78
2018-07-07T01:10:11.874Z,12.75
2018-07-07T01:11:32.544Z,12.73
2018-07-07T01:12:54.148Z,12.75
2018-07-07T01:13:54.795Z,12.72
2018-07-07T01:15:15.631Z,12.68
2018-07-07T01:16:16.045Z,12.64
2018-07-07T01:17:16.436Z,12.60
2018-07-07T01:18:16.094Z,12.58
2018-07-07T01:19:15.622Z,12.58
2018-07-07T01:20:16.192Z,12.58
2018-07-07T01:21:15.671Z,12.55
2018-07-07T01:22:16.094Z,12.57
2018-07-07T01:23:16.639Z,12.57
2018-07-07T01:24:16.026Z,12.58
2018-07-07T01:25:15.802Z,12.60
2018-07-07T01:26:16.229Z,12.64
2018-07-07T01:27:15.880Z,12.67
2018-07-07T01:28:15.655Z,12.68
2018-07-07T01:29:16.362Z,12.67
2018-07-07T01:30:37.342Z,12.64
2018-07-07T01:31:59.133Z,12.62
2018-07-07T01:33:20.964Z,12.61
2018-07-07T01:34:21.838Z,12.61
2018-07-07T01:35:21.506Z,12.61
2018-07-07T01:36:21.036Z,12.61
2018-07-07T01:37:21.966Z,12.60
2018-07-07T01:38:21.406Z,12.57
2018-07-07T01:39:20.910Z,12.54
2018-07-07T01:40:21.436Z,12.49
2018-07-07T01:41:20.836Z,12.49
2018-07-07T01:42:21.617Z,12.46
2018-07-07T01:43:42.456Z,12.46
2018-07-07T01:44:43.033Z,12.43
2018-07-07T01:45:42.407Z,12.43
2018-07-07T01:46:42.964Z,12.42
2018-07-07T01:47:42.444Z,12.37
2018-07-07T01:48:42.863Z,12.31
2018-07-07T01:49:42.604Z,12.28
2018-07-07T01:50:43.153Z,12.27
2018-07-07T01:51:42.988Z,12.22
2018-07-07T01:52:42.657Z,12.22
2018-07-07T01:53:42.071Z,12.22
2018-07-07T01:54:42.628Z,12.22
2018-07-07T01:55:43.096Z,12.18
2018-07-07T01:56:42.508Z,12.15
2018-07-07T01:57:42.905Z,12.13
2018-07-07T01:58:42.308Z,12.10
2018-07-07T01:59:43.080Z,12.09
2018-07-07T02:00:42.684Z,12.06
2018-07-07T02:01:42.666Z,12.03
2018-07-07T02:02:43.310Z,12.02
2018-07-07T02:03:42.942Z,12.02
2018-07-07T02:04:42.473Z,12.00
2018-07-07T02:05:43.206Z,11.99
2018-07-07T02:06:42.653Z,11.99
2018-07-07T02:07:43.006Z,11.99
2018-07-07T02:08:42.664Z,12.00
2018-07-07T02:09:43.116Z,12.02
2018-07-07T02:11:25.956Z,12.03
2018-07-07T02:12:48.254Z,12.03
2018-07-07T02:13:48.984Z,12.02
2018-07-07T02:14:48.576Z,12.00
2018-07-07T02:15:48.472Z,11.99
2018-07-07T02:16:49.083Z,11.97
2018-07-07T02:17:48.537Z,11.95
2018-07-07T02:18:48.137Z,11.95
2018-07-07T02:19:48.581Z,11.90
2018-07-07T02:20:48.159Z,11.88
2018-07-07T02:21:48.700Z,11.87
2018-07-07T02:22:48.058Z,11.86
2018-07-07T02:23:48.638Z,11.87
2018-07-07T02:24:48.222Z,11.87
2018-07-07T02:25:48.535Z,11.86
2018-07-07T02:26:48.205Z,11.84
2018-07-07T02:28:31.665Z,11.80
2018-07-07T02:29:32.034Z,11.78
2018-07-07T02:30:31.580Z,11.77
2018-07-07T02:31:32.314Z,11.75
2018-07-07T02:32:53.483Z,11.75
2018-07-07T02:33:54.149Z,11.77
2018-07-07T02:34:53.414Z,11.78
2018-07-07T02:35:54.062Z,11.80
2018-07-07T02:36:53.441Z,11.78
2018-07-07T02:37:53.928Z,11.78
2018-07-07T02:38:53.366Z,11.80
2018-07-07T02:39:54.000Z,11.83
2018-07-07T02:40:53.528Z,11.80
2018-07-07T02:41:54.066Z,11.77
2018-07-07T02:42:53.795Z,11.75
2018-07-07T02:44:40.278Z,11.68
2018-07-07T02:45:41.016Z,11.66
2018-07-07T02:46:40.479Z,11.68
2018-07-07T02:47:40.832Z,11.66
2018-07-07T02:48:40.625Z,11.60
2018-07-07T02:49:40.394Z,11.57
2018-07-07T02:50:45.250Z,11.59
2018-07-07T02:51:40.925Z,11.59
2018-07-07T02:52:40.302Z,11.60
2018-07-07T02:54:23.797Z,11.63
2018-07-07T02:55:24.610Z,11.62
2018-07-07T02:56:23.953Z,11.63
2018-07-07T02:57:24.422Z,11.65
2018-07-07T02:58:23.736Z,11.69
2018-07-07T02:59:24.558Z,11.68
2018-07-07T03:00:45.469Z,11.68
2018-07-07T03:01:45.934Z,11.65
2018-07-07T03:02:45.599Z,11.63
2018-07-07T03:03:46.028Z,11.55
2018-07-07T03:04:45.721Z,11.54
2018-07-07T03:06:07.949Z,11.50
2018-07-07T03:07:29.868Z,11.44
2018-07-07T03:08:30.374Z,11.44
2018-07-07T03:09:51.026Z,11.41
2018-07-07T03:10:51.618Z,11.43
2018-07-07T03:11:51.266Z,11.41
2018-07-07T03:12:51.792Z,11.41
2018-07-07T03:13:51.393Z,11.43
2018-07-07T03:14:51.799Z,11.43
2018-07-07T03:15:51.129Z,11.44
2018-07-07T03:16:51.802Z,11.48
2018-07-07T03:18:12.633Z,11.52
2018-07-07T03:19:34.584Z,11.48
2018-07-07T03:20:35.078Z,11.48
2018-07-07T03:21:34.762Z,11.43
2018-07-07T03:22:35.541Z,11.40
2018-07-07T03:23:34.867Z,11.35
2018-07-07T03:24:35.632Z,11.30
2018-07-07T03:25:35.507Z,11.29
2018-07-07T03:26:35.227Z,11.29
2018-07-07T03:27:35.097Z,11.27
2018-07-07T03:28:34.655Z,11.27
2018-07-07T03:29:35.194Z,11.26
2018-07-07T03:30:34.725Z,11.25
2018-07-07T03:31:35.187Z,11.23
2018-07-07T03:32:34.771Z,11.22
2018-07-07T03:33:35.053Z,11.18
2018-07-07T03:34:34.512Z,11.17
2018-07-07T03:35:34.863Z,11.18
2018-07-07T03:36:35.324Z,11.18
2018-07-07T03:37:35.158Z,11.17
2018-07-07T03:38:35.197Z,11.15
2018-07-07T03:39:55.973Z,11.17
2018-07-07T03:40:56.537Z,11.17
2018-07-07T03:41:56.297Z,11.17
2018-07-07T03:43:18.094Z,11.18
2018-07-07T03:44:18.430Z,11.19
2018-07-07T03:45:39.420Z,11.23
2018-07-07T03:46:40.100Z,11.23
2018-07-07T03:48:00.987Z,11.29
2018-07-07T03:49:01.592Z,11.27
2018-07-07T03:50:01.190Z,11.30
2018-07-07T03:51:44.452Z,11.32
2018-07-07T03:52:45.234Z,11.33
2018-07-07T03:53:44.681Z,11.40
2018-07-07T03:54:45.335Z,11.45
2018-07-07T03:55:44.938Z,11.51
2018-07-07T03:56:44.788Z,11.52
2018-07-07T03:57:45.602Z,11.52
2018-07-07T03:58:45.331Z,11.52
2018-07-07T03:59:44.800Z,11.55
2018-07-07T04:00:44.552Z,11.55
2018-07-07T04:01:45.243Z,11.57
2018-07-07T04:02:44.957Z,11.59
2018-07-07T04:03:44.481Z,11.63
2018-07-07T04:04:44.980Z,11.66
2018-07-07T04:05:44.479Z,11.63
2018-07-07T04:06:45.305Z,11.65
2018-07-07T04:07:45.051Z,11.63
2018-07-07T04:08:44.516Z,11.60
2018-07-07T04:09:45.122Z,11.59
2018-07-07T04:10:44.731Z,11.54
2018-07-07T04:11:45.585Z,11.54
2018-07-07T04:12:45.191Z,11.54
2018-07-07T04:13:44.865Z,11.52
2018-07-07T04:14:44.268Z,11.52
2018-07-07T04:15:45.031Z,11.52
2018-07-07T04:16:44.733Z,11.51
2018-07-07T04:17:45.522Z,11.51
2018-07-07T04:18:45.120Z,11.50
2018-07-07T04:19:44.922Z,11.51
2018-07-07T04:20:44.961Z,11.52
2018-07-07T04:21:44.529Z,11.54
2018-07-07T04:22:45.188Z,11.54
2018-07-07T04:23:44.726Z,11.59
2018-07-07T04:24:45.394Z,11.60
2018-07-07T04:25:44.856Z,11.62
2018-07-07T04:26:44.485Z,11.66
2018-07-07T04:27:45.114Z,11.69
2018-07-07T04:28:44.685Z,11.72
2018-07-07T04:29:45.265Z,11.73
2018-07-07T04:31:06.348Z,11.77
2018-07-07T04:32:06.970Z,11.81
2018-07-07T04:33:06.522Z,11.86
2018-07-07T04:34:07.351Z,11.91
2018-07-07T04:35:28.418Z,12.02
2018-07-07T04:36:29.277Z,12.04
2018-07-07T04:37:28.990Z,12.13
2018-07-07T04:38:28.588Z,12.18
2018-07-07T04:39:29.295Z,12.21
2018-07-07T04:40:28.972Z,12.25
2018-07-07T04:41:29.344Z,12.29
2018-07-07T04:42:28.806Z,12.32
2018-07-07T04:43:29.458Z,12.43
2018-07-07T04:44:50.333Z,12.50
2018-07-07T04:46:13.153Z,12.58
2018-07-07T04:47:13.714Z,12.65
2018-07-07T04:48:13.487Z,12.67
2018-07-07T04:49:14.349Z,12.73
2018-07-07T04:50:14.078Z,12.85
2018-07-07T04:51:35.595Z,12.93
2018-07-07T04:52:36.503Z,12.98
2018-07-07T04:53:36.083Z,13.04
2018-07-07T04:54:35.619Z,13.09
2018-07-07T04:55:35.998Z,13.18
2018-07-07T04:56:35.875Z,13.22
2018-07-07T04:57:35.817Z,13.33
2018-07-07T04:58:35.434Z,13.39
2018-07-07T04:59:36.139Z,13.44
2018-07-07T05:00:35.816Z,13.52
2018-07-07T05:01:35.472Z,13.54
2018-07-07T05:02:35.850Z,13.57
2018-07-07T05:04:39.310Z,13.70
2018-07-07T05:05:39.814Z,13.75
2018-07-07T05:06:39.335Z,13.83
2018-07-07T05:07:39.880Z,13.87
2018-07-07T05:08:39.435Z,13.95
2018-07-07T05:09:39.337Z,13.99
2018-07-07T05:10:39.244Z,14.08
2018-07-07T05:11:39.991Z,14.17
2018-07-07T05:12:39.973Z,14.25
2018-07-07T05:13:39.535Z,14.32
2018-07-07T05:14:39.542Z,14.40
2018-07-07T05:15:39.774Z,14.48
2018-07-07T05:16:39.592Z,14.53
2018-07-07T05:17:39.292Z,14.58
2018-07-07T05:18:40.123Z,14.62
2018-07-07T05:20:22.619Z,14.78
2018-07-07T05:21:23.390Z,14.84
2018-07-07T05:22:23.319Z,14.89
2018-07-07T05:23:23.424Z,14.94
2018-07-07T05:24:22.875Z,15.02
2018-07-07T05:25:23.443Z,15.04
2018-07-07T05:26:22.943Z,15.06
2018-07-07T05:27:22.576Z,15.11
2018-07-07T05:28:23.165Z,15.18
2018-07-07T05:29:22.988Z,15.28
2018-07-07T05:30:23.890Z,15.36
2018-07-07T05:31:23.654Z,15.43
2018-07-07T05:32:23.668Z,15.54
2018-07-07T05:33:23.335Z,15.64
2018-07-07T05:34:45.766Z,15.75
2018-07-07T05:35:46.802Z,15.79
2018-07-07T05:37:06.982Z,15.95
2018-07-07T05:38:07.864Z,16.04
2018-07-07T05:39:07.356Z,16.13
2018-07-07T05:40:08.008Z,16.21
2018-07-07T05:41:08.766Z,16.31
2018-07-07T05:42:07.192Z,16.36
2018-07-07T05:43:29.385Z,16.41
2018-07-07T05:44:30.307Z,16.41
2018-07-07T05:45:30.171Z,16.41
2018-07-07T05:46:29.701Z,16.46
2018-07-07T05:47:30.387Z,16.46
2018-07-07T05:48:30.307Z,16.49
2018-07-07T05:49:31.184Z,16.47
2018-07-07T05:50:29.893Z,16.49
2018-07-07T05:51:29.375Z,16.53
2018-07-07T05:52:29.811Z,16.54
2018-07-07T05:53:51.310Z,16.68
2018-07-07T05:54:52.126Z,16.76
2018-07-07T05:55:53.709Z,16.84
2018-07-07T05:56:51.722Z,16.89
2018-07-07T05:57:51.694Z,16.96
2018-07-07T05:58:51.743Z,17.02
2018-07-07T05:59:52.953Z,17.06
2018-07-07T06:00:51.878Z,17.14
2018-07-07T06:01:52.221Z,17.19
2018-07-07T06:02:51.819Z,17.23
2018-07-07T06:03:51.733Z,17.26
2018-07-07T06:04:52.532Z,17.27
2018-07-07T06:05:51.457Z,17.39
2018-07-07T06:06:54.123Z,17.42
2018-07-07T06:07:51.615Z,17.46
2018-07-07T06:08:51.084Z,17.52
2018-07-07T06:09:51.574Z,17.59
2018-07-07T06:10:51.301Z,17.64
2018-07-07T06:11:52.242Z,17.70
2018-07-07T06:12:51.862Z,17.72
2018-07-07T06:13:51.408Z,17.79
2018-07-07T06:14:51.339Z,17.80
2018-07-07T06:15:51.667Z,17.78
2018-07-07T06:16:51.673Z,17.82
2018-07-07T06:17:51.706Z,17.82
2018-07-07T06:18:51.384Z,17.86
2018-07-07T06:19:52.719Z,17.78
2018-07-07T06:20:51.426Z,17.83
2018-07-07T06:21:53.107Z,17.89
2018-07-07T06:22:53.696Z,17.94
2018-07-07T06:24:16.357Z,18.01
2018-07-07T06:25:13.156Z,18.04
2018-07-07T06:26:13.597Z,18.25
2018-07-07T06:27:14.926Z,18.50
2018-07-07T06:28:15.196Z,18.50
2018-07-07T06:29:16.911Z,18.62
2018-07-07T06:30:15.191Z,18.80
2018-07-07T06:31:35.148Z,18.90
2018-07-07T06:32:41.343Z,19.19
2018-07-07T06:33:37.430Z,19.39
2018-07-07T06:34:35.073Z,19.70
2018-07-07T06:35:36.525Z,19.86
2018-07-07T06:36:39.226Z,20.09
2018-07-07T06:37:35.111Z,20.25
2018-07-07T06:38:39.277Z,20.37
2018-07-07T06:39:34.953Z,20.47
2018-07-07T06:40:34.648Z,20.60
2018-07-07T06:41:36.600Z,20.65
2018-07-07T06:42:35.488Z,20.82
2018-07-07T06:43:36.747Z,20.88
2018-07-07T06:44:36.624Z,21.05
2018-07-07T06:45:35.256Z,21.14
2018-07-07T06:46:34.867Z,21.11
2018-07-07T06:47:34.887Z,21.20
2018-07-07T06:48:34.604Z,21.36
2018-07-07T06:49:35.196Z,21.45
2018-07-07T06:50:34.755Z,21.42
2018-07-07T06:51:35.386Z,21.30
2018-07-07T06:52:35.342Z,21.33
2018-07-07T06:53:35.384Z,21.39
2018-07-07T06:54:56.518Z,21.29
2018-07-07T06:55:57.482Z,21.45
2018-07-07T06:56:57.150Z,21.64
2018-07-07T06:57:56.812Z,21.85
2018-07-07T06:59:19.095Z,21.96
2018-07-07T07:00:19.854Z,21.98
2018-07-07T07:01:19.634Z,21.99
2018-07-07T07:02:40.908Z,21.85
2018-07-07T07:03:41.450Z,21.73
2018-07-07T07:04:40.945Z,21.60
2018-07-07T07:05:41.624Z,21.45
2018-07-07T07:06:41.436Z,21.36
2018-07-07T07:07:41.366Z,21.39
2018-07-07T07:08:41.042Z,21.33
2018-07-07T07:10:02.993Z,21.25
2018-07-07T07:11:03.891Z,21.29
2018-07-07T07:12:04.128Z,21.29
2018-07-07T07:13:03.840Z,21.22
2018-07-07T07:14:24.981Z,21.25
2018-07-07T07:15:25.587Z,21.22
2018-07-07T07:16:25.226Z,21.18
2018-07-07T07:17:25.210Z,21.12
2018-07-07T07:18:25.163Z,21.20
2018-07-07T07:19:25.785Z,21.27
2018-07-07T07:20:25.450Z,21.37
2018-07-07T07:21:25.364Z,21.45
2018-07-07T07:22:25.874Z,21.45
2018-07-07T07:23:25.756Z,21.48
2018-07-07T07:24:25.964Z,21.51
2018-07-07T07:25:25.670Z,21.54
2018-07-07T07:26:25.397Z,21.64
2018-07-07T07:27:46.642Z,21.67
2018-07-07T07:28:47.359Z,21.70
2018-07-07T07:29:47.287Z,21.77
2018-07-07T07:30:47.234Z,21.92
2018-07-07T07:32:08.434Z,22.04
2018-07-07T07:33:30.759Z,22.00
2018-07-07T07:34:31.303Z,22.02
2018-07-07T07:35:31.985Z,21.98
2018-07-07T07:36:31.874Z,21.85
2018-07-07T07:37:31.551Z,21.87
2018-07-07T07:38:31.283Z,21.92
2018-07-07T07:39:31.044Z,21.96
2018-07-07T07:40:30.809Z,22.10
2018-07-07T07:41:53.117Z,22.00
2018-07-07T07:42:53.861Z,22.07
2018-07-07T07:43:54.104Z,22.15
2018-07-07T07:44:53.567Z,22.25
2018-07-07T07:46:16.771Z,22.35
2018-07-07T07:47:17.685Z,22.48
2018-07-07T07:48:17.413Z,22.63
2018-07-07T07:49:17.016Z,22.73
2018-07-07T07:50:16.835Z,22.87
2018-07-07T07:51:17.533Z,22.99
2018-07-07T07:52:17.521Z,23.27
2018-07-07T07:53:17.285Z,23.58
2018-07-07T07:54:17.039Z,23.87
2018-07-07T07:55:17.793Z,24.24
2018-07-07T07:56:17.506Z,24.61
2018-07-07T07:57:17.347Z,24.85
2018-07-07T07:58:17.126Z,24.91
2018-07-07T07:59:17.236Z,24.95
2018-07-07T08:00:40.405Z,25.16
2018-07-07T08:01:41.727Z,24.70
2018-07-07T08:02:43.520Z,24.60
2018-07-07T08:03:41.927Z,24.85
2018-07-07T08:04:41.033Z,24.91
2018-07-07T08:05:41.141Z,24.96
2018-07-07T08:06:41.180Z,25.14
2018-07-07T08:07:41.220Z,25.54
2018-07-07T08:08:40.651Z,25.90
2018-07-07T08:09:41.070Z,26.21
2018-07-07T08:10:41.199Z,26.36
2018-07-07T08:11:41.040Z,26.43
2018-07-07T08:12:40.994Z,26.53
2018-07-07T08:13:42.104Z,26.73
2018-07-07T08:14:40.761Z,26.74
2018-07-07T08:15:41.656Z,26.71
2018-07-07T08:16:41.249Z,26.84
2018-07-07T08:17:40.798Z,26.97
2018-07-07T08:18:42.745Z,27.18
2018-07-07T08:19:40.855Z,27.44
2018-07-07T08:20:40.682Z,27.52
2018-07-07T08:21:41.385Z,27.44
2018-07-07T08:22:41.188Z,27.35
2018-07-07T08:23:41.346Z,27.30
2018-07-07T08:24:41.272Z,27.44
2018-07-07T08:25:41.010Z,27.32
2018-07-07T08:26:40.895Z,27.36
2018-07-07T08:27:40.527Z,27.51
2018-07-07T08:28:41.200Z,27.37
2018-07-07T08:29:40.862Z,27.29
2018-07-07T08:30:42.233Z,27.26
2018-07-07T08:31:44.726Z,27.35
2018-07-07T08:32:41.162Z,27.39
2018-07-07T08:33:41.098Z,27.47
2018-07-07T08:34:40.975Z,27.74
2018-07-07T08:35:40.736Z,27.85
2018-07-07T08:36:40.365Z,27.68
2018-07-07T08:37:40.894Z,27.55
2018-07-07T08:38:40.786Z,27.71
2018-07-07T08:39:40.553Z,27.95
2018-07-07T08:40:41.129Z,28.10
2018-07-07T08:41:40.909Z,28.19
2018-07-07T08:42:40.578Z,28.01
2018-07-07T08:43:41.151Z,28.19
2018-07-07T08:44:40.714Z,28.32
2018-07-07T08:45:40.532Z,28.35
2018-07-07T08:46:42.082Z,28.27
2018-07-07T08:47:41.276Z,28.47
2018-07-07T08:48:42.088Z,28.64
2018-07-07T08:49:40.572Z,29.04
2018-07-07T08:50:41.154Z,29.22
2018-07-07T08:51:40.966Z,29.60
2018-07-07T08:52:40.646Z,29.76
2018-07-07T08:54:02.540Z,29.42
2018-07-07T08:55:03.131Z,29.22
2018-07-07T08:56:02.889Z,29.20
2018-07-07T08:57:03.616Z,29.24
2018-07-07T08:58:03.274Z,29.04
2018-07-07T08:59:03.118Z,28.69
2018-07-07T09:00:02.828Z,29.02
2018-07-07T09:01:02.398Z,29.02
2018-07-07T09:02:03.067Z,28.75
2018-07-07T09:03:02.705Z,28.47
2018-07-07T09:04:03.349Z,28.05
2018-07-07T09:05:02.761Z,27.90
2018-07-07T09:06:03.489Z,27.67
2018-07-07T09:07:03.466Z,27.44
2018-07-07T09:08:03.060Z,27.14
2018-07-07T09:09:02.776Z,26.73
2018-07-07T09:10:03.609Z,26.10
2018-07-07T09:11:28.405Z,26.23
2018-07-07T09:12:28.840Z,26.19
2018-07-07T09:13:27.668Z,26.38
2018-07-07T09:14:28.928Z,27.07
2018-07-07T09:15:27.447Z,27.67
2018-07-07T09:16:27.882Z,28.00
2018-07-07T09:17:27.743Z,28.47
2018-07-07T09:18:50.117Z,28.59
2018-07-07T09:19:51.784Z,28.35
2018-07-07T09:20:49.940Z,28.27
2018-07-07T09:21:49.654Z,27.83
2018-07-07T09:22:49.283Z,27.45
2018-07-07T09:23:49.217Z,27.58
2018-07-07T09:24:49.826Z,27.77
2018-07-07T09:25:49.586Z,28.19
2018-07-07T09:26:49.251Z,28.54
2018-07-07T09:27:49.095Z,29.05
2018-07-07T09:28:49.723Z,29.44
2018-07-07T09:29:49.471Z,29.84
2018-07-07T09:30:49.205Z,29.76
2018-07-07T09:31:52.015Z,29.61
2018-07-07T09:32:48.754Z,29.23
2018-07-07T09:33:50.009Z,28.82
2018-07-07T09:34:49.756Z,28.48
2018-07-07T09:35:49.623Z,27.93
2018-07-07T09:37:10.906Z,27.54
2018-07-07T09:38:11.785Z,28.07
2018-07-07T09:39:11.251Z,28.01
2018-07-07T09:40:12.068Z,27.71
2018-07-07T09:41:33.067Z,27.58
2018-07-07T09:42:33.897Z,27.77
2018-07-07T09:43:34.278Z,27.65
2018-07-07T09:44:34.673Z,27.21
2018-07-07T09:45:54.766Z,26.41
2018-07-07T09:46:55.596Z,26.97
2018-07-07T09:47:55.069Z,27.70
2018-07-07T09:48:55.860Z,28.29
2018-07-07T09:49:55.467Z,29.02
2018-07-07T09:50:55.106Z,29.51
2018-07-07T09:52:18.117Z,29.68
2018-07-07T09:53:18.085Z,29.59
2018-07-07T09:54:39.689Z,28.91
2018-07-07T09:55:40.466Z,29.07
2018-07-07T09:56:40.416Z,29.32
2018-07-07T09:57:40.277Z,29.59
2018-07-07T09:58:40.018Z,29.50
2018-07-07T09:59:39.670Z,29.68
2018-07-07T10:00:40.282Z,29.95
2018-07-07T10:01:40.020Z,29.45
2018-07-07T10:02:40.089Z,29.04
2018-07-07T10:03:39.650Z,28.78
2018-07-07T10:04:40.281Z,28.62
2018-07-07T10:06:22.487Z,28.15
2018-07-07T10:07:23.081Z,28.56
2018-07-07T10:08:23.315Z,28.72
2018-07-07T10:09:44.710Z,29.34
2018-07-07T10:10:44.471Z,29.49
2018-07-07T10:11:45.192Z,29.49
2018-07-07T10:13:06.537Z,29.08
2018-07-07T10:14:28.813Z,28.56
2018-07-07T10:15:29.368Z,28.25
2018-07-07T10:16:29.100Z,27.80
2018-07-07T10:17:28.801Z,27.29
2018-07-07T10:18:29.469Z,26.95
2018-07-07T10:19:29.275Z,26.77
2018-07-07T10:20:29.263Z,26.62
2018-07-07T10:21:29.096Z,27.17
2018-07-07T10:22:29.571Z,27.52
2018-07-07T10:23:29.460Z,26.95
2018-07-07T10:24:29.019Z,26.74
2018-07-07T10:25:29.877Z,26.44
2018-07-07T10:26:51.205Z,25.96
2018-07-07T10:27:51.770Z,25.84
2018-07-07T10:28:51.648Z,26.28
2018-07-07T10:29:51.132Z,27.00
2018-07-07T10:30:53.846Z,27.10
2018-07-07T10:31:51.427Z,26.78
2018-07-07T10:32:51.914Z,27.37
2018-07-07T10:33:52.428Z,27.80
2018-07-07T10:34:52.121Z,28.02
2018-07-07T10:35:52.128Z,28.54
2018-07-07T10:36:51.812Z,28.59
2018-07-07T10:37:51.234Z,28.51
2018-07-07T10:38:51.823Z,28.56
2018-07-07T10:39:52.538Z,28.82
2018-07-07T10:40:51.095Z,29.36
2018-07-07T10:41:52.930Z,29.39
2018-07-07T10:42:51.824Z,29.07
2018-07-07T10:43:51.546Z,28.48
2018-07-07T10:44:51.519Z,28.62
2018-07-07T10:45:51.318Z,29.34
2018-07-07T10:46:51.385Z,29.95
2018-07-07T10:48:12.256Z,30.30
2018-07-07T10:49:12.900Z,30.19
2018-07-07T10:50:12.672Z,29.93
2018-07-07T10:51:13.305Z,29.76
2018-07-07T10:52:56.004Z,29.73
2018-07-07T10:53:55.832Z,30.40
2018-07-07T10:55:18.105Z,31.31
2018-07-07T10:56:43.838Z,31.36
2018-07-07T10:57:40.750Z,31.58
2018-07-07T10:58:40.468Z,31.96
2018-07-07T10:59:41.718Z,31.94
2018-07-07T11:00:40.436Z,31.34
2018-07-07T11:02:03.064Z,30.53
2018-07-07T11:03:04.377Z,29.93
2018-07-07T11:04:03.955Z,29.65
2018-07-07T11:05:47.474Z,28.82
2018-07-07T11:07:31.484Z,29.38
2018-07-07T11:08:32.308Z,29.35
2018-07-07T11:09:32.145Z,29.12
2018-07-07T11:11:15.289Z,28.82
2018-07-07T11:12:17.514Z,29.31
2018-07-07T11:13:35.985Z,29.94
2018-07-07T11:14:36.757Z,29.86
2018-07-07T11:15:58.727Z,30.73
2018-07-07T11:18:04.971Z,32.07
2018-07-07T11:19:06.994Z,32.63
2018-07-07T11:20:06.063Z,32.30
2018-07-07T11:21:05.127Z,32.26
2018-07-07T11:22:04.914Z,31.70
2018-07-07T11:23:05.602Z,30.65
2018-07-07T11:24:08.937Z,30.50
2018-07-07T11:25:05.630Z,30.50
2018-07-07T11:26:05.461Z,30.68
2018-07-07T11:27:05.542Z,31.06
2018-07-07T11:28:05.024Z,31.69
2018-07-07T11:29:04.705Z,32.40
2018-07-07T11:30:05.330Z,32.89
2018-07-07T11:31:26.413Z,33.37
2018-07-07T11:32:27.219Z,33.65
2018-07-07T11:33:26.944Z,33.99
2018-07-07T11:34:27.211Z,33.55
2018-07-07T11:35:27.129Z,32.67
2018-07-07T11:36:26.759Z,31.76
2018-07-07T11:37:26.365Z,31.44
2018-07-07T11:38:49.408Z,31.49
2018-07-07T11:39:49.273Z,31.58
2018-07-07T11:40:50.266Z,31.69
2018-07-07T11:41:49.959Z,31.99
2018-07-07T11:42:49.643Z,32.36
2018-07-07T11:44:11.075Z,32.60
2018-07-07T11:45:11.206Z,33.04
2018-07-07T11:46:10.906Z,33.49
2018-07-07T11:47:32.242Z,32.36
2018-07-07T11:48:32.854Z,31.99
2018-07-07T11:49:33.716Z,31.69
2018-07-07T11:51:17.209Z,32.45
2018-07-07T11:52:37.995Z,32.90
2018-07-07T11:53:38.409Z,33.28
2018-07-07T11:54:39.931Z,33.31
2018-07-07T11:55:39.099Z,33.59
2018-07-07T11:56:40.101Z,33.15
2018-07-07T11:57:40.934Z,33.07
2018-07-07T11:58:38.922Z,33.17
2018-07-07T11:59:38.690Z,33.30
2018-07-07T12:00:38.329Z,32.45
2018-07-07T12:01:39.084Z,32.33
2018-07-07T12:03:02.580Z,32.33
2018-07-07T12:04:04.862Z,32.34
2018-07-07T12:05:02.716Z,32.14
2018-07-07T12:06:04.035Z,32.27
2018-07-07T12:07:24.387Z,32.58
2018-07-07T12:08:47.365Z,32.77
2018-07-07T12:09:48.085Z,33.07
2018-07-07T12:10:47.764Z,33.42
2018-07-07T12:12:09.073Z,33.87
2018-07-07T12:13:09.762Z,33.92
2018-07-07T12:14:31.754Z,33.90
2018-07-07T12:15:32.568Z,33.28
2018-07-07T12:16:53.661Z,33.22
2018-07-07T12:17:54.485Z,33.50
2018-07-07T12:18:54.150Z,33.80
2018-07-07T12:19:53.907Z,33.79
2018-07-07T12:20:54.773Z,33.83
2018-07-07T12:21:54.735Z,33.96
2018-07-07T12:22:54.883Z,34.01
2018-07-07T12:23:54.625Z,33.96
2018-07-07T12:25:16.415Z,34.14
2018-07-07T12:26:17.055Z,34.43
2018-07-07T12:27:16.876Z,34.83
2018-07-07T12:28:16.596Z,35.15
2018-07-07T12:29:37.756Z,35.04
2018-07-07T12:30:38.819Z,34.89
2018-07-07T12:31:38.861Z,34.66
2018-07-07T12:32:38.497Z,34.88
2018-07-07T12:33:39.800Z,34.80
2018-07-07T12:35:21.914Z,34.77
2018-07-07T12:36:23.165Z,34.60
2018-07-07T12:37:22.043Z,34.50
2018-07-07T12:38:22.157Z,34.39
2018-07-07T12:39:22.672Z,34.16
2018-07-07T12:40:22.886Z,34.20
2018-07-07T12:41:22.581Z,33.96
2018-07-07T12:42:23.103Z,34.05
2018-07-07T12:43:45.706Z,34.38
2018-07-07T12:45:07.456Z,34.51
2018-07-07T12:46:08.790Z,34.77
2018-07-07T12:47:08.050Z,34.90
2018-07-07T12:48:30.500Z,34.51
2018-07-07T12:49:55.217Z,33.96
2018-07-07T12:50:55.317Z,33.74
2018-07-07T12:51:55.240Z,33.89
2018-07-07T12:52:54.727Z,34.10
2018-07-07T12:53:55.675Z,34.32
2018-07-07T12:54:55.861Z,34.25
2018-07-07T12:55:56.160Z,34.18
2018-07-07T12:56:55.003Z,33.76
2018-07-07T12:57:54.912Z,33.43
2018-07-07T12:58:56.002Z,33.27
2018-07-07T12:59:55.945Z,32.87
2018-07-07T13:00:56.230Z,32.85
2018-07-07T13:01:54.711Z,33.09
2018-07-07T13:03:19.170Z,33.12
2018-07-07T13:04:20.436Z,33.34
2018-07-07T13:05:19.309Z,33.42
2018-07-07T13:06:20.715Z,33.69
2018-07-07T13:07:19.624Z,33.81
2018-07-07T13:08:19.763Z,33.49
2018-07-07T13:09:41.943Z,33.57
2018-07-07T13:11:03.464Z,34.03
2018-07-07T13:12:04.315Z,34.33
2018-07-07T13:13:04.317Z,34.33
2018-07-07T13:14:03.949Z,34.33
2018-07-07T13:15:04.075Z,34.50
2018-07-07T13:16:03.853Z,34.40
2018-07-07T13:17:04.105Z,34.18
2018-07-07T13:19:08.644Z,33.84
2018-07-07T13:20:09.394Z,33.98
2018-07-07T13:21:09.241Z,33.69
2018-07-07T13:22:09.150Z,33.74
2018-07-07T13:23:08.897Z,34.03
2018-07-07T13:24:08.572Z,33.99
2018-07-07T13:25:31.007Z,34.01
2018-07-07T13:26:31.856Z,33.84
2018-07-07T13:27:32.030Z,33.53
2018-07-07T13:28:31.512Z,33.45
2018-07-07T13:29:31.359Z,33.53
2018-07-07T13:30:30.982Z,33.77
2018-07-07T13:31:30.753Z,34.24
2018-07-07T13:32:31.265Z,34.38
2018-07-07T13:33:31.859Z,34.03
2018-07-07T13:34:31.619Z,33.31
2018-07-07T13:35:31.636Z,33.30
2018-07-07T13:36:31.912Z,33.36
2018-07-07T13:37:53.570Z,33.31
2018-07-07T13:38:53.766Z,33.17